Terminal Aerodrome Forecast
Issued by NWS

Home | Current Version | Previous Version | Text Only | Print | Product List | Glossary On
Versions: 1 2 3 4 5 6 7 8 9 10 11 12
000
FTUS42 KMLB 202300
TAFLEE
TAF
KLEE 202320Z 2100/2124 04004KT P6SM OVC100
     FM210700 VRB02KT 5SM BR BKN025 OVC060
     FM211400 15004KT P6SM SCT025 BKN090=

USA.gov is the U.S. government's official web portal to all federal, state and local government web resources and services.